London, Canada
Current Conditions -  °F | °C
As of 2:00 PM on Friday 31 Oct 2014 (Local Time) from CYXU Reporting Station
Light Rain Light Rain  
Wind Chill: 39°   Ceiling: 900
Heat Index: 43°   Visibility: 8mi
Dew Point: 41°   Wind: 7mph
Humidity: 93%   Direction: 90°E
Pressure: 29.88"   Gusts: NA
Location:  42.99°N, 81.25°W
Report Text: CYXU 311800Z 09006KT 8SM -RA BKN009 OVC019 06/05 A2988 RMK SF6SC2 SLP123
Loading
Personal Weather Stations






























Interactive Weather Map
Tropical Storm Tracking
New forecast layout! Learn more

10-Day Weather Forecast

Advertisements
Track Severe Weather on mobile